Time;durP1;ratioP1;P1;durP2;ratioP2;P2;SDS_P1;SDS_P2;PMS_P1;PMS_P2;Temp;Humidity;BMP_temperature;BMP_pressure;BME280_temperature;BME280_humidity;BME280_pressure;Samples;Min_cycle;Max_cycle;Signal;HPM_P1;HPM_P2
2022/04/17 00:02:44;;;;;;;2.20;1.80;;;4.20;58.80;;;;;;6309173;28;20196;-65
2022/04/17 00:05:45;;;;;;;2.93;2.00;;;4.20;58.50;;;;;;6265740;28;20234;-65
2022/04/17 00:08:46;;;;;;;1.87;1.67;;;4.20;58.60;;;;;;6265374;28;20232;-65
2022/04/17 00:11:47;;;;;;;1.40;1.20;;;4.20;58.70;;;;;;6286052;28;20275;-65
2022/04/17 00:14:47;;;;;;;1.83;1.53;;;4.20;59.00;;;;;;6282561;28;20203;-65
2022/04/17 00:17:48;;;;;;;2.10;1.60;;;4.20;59.20;;;;;;6307457;28;20204;-65
2022/04/17 00:20:49;;;;;;;3.97;2.10;;;4.20;59.40;;;;;;6285552;28;20209;-65
2022/04/17 00:23:50;;;;;;;2.73;2.27;;;4.20;59.30;;;;;;6263287;28;20201;-64
2022/04/17 00:26:50;;;;;;;2.17;1.83;;;4.20;59.40;;;;;;6271859;28;20204;-65
2022/04/17 00:29:51;;;;;;;2.23;1.70;;;4.20;58.40;;;;;;6265799;28;20311;-65
2022/04/17 00:32:52;;;;;;;1.80;1.57;;;4.20;58.50;;;;;;6299669;28;20228;-65
2022/04/17 00:35:53;;;;;;;1.87;1.50;;;4.20;58.60;;;;;;6283332;28;20194;-65
2022/04/17 00:38:53;;;;;;;2.00;1.53;;;4.20;58.50;;;;;;6270435;28;20195;-65
2022/04/17 00:41:55;;;;;;;2.13;1.80;;;4.20;58.30;;;;;;6274657;28;20224;-65
2022/04/17 00:44:56;;;;;;;1.67;1.57;;;4.20;58.70;;;;;;6308077;28;20176;-65
2022/04/17 00:47:57;;;;;;;1.53;1.43;;;4.20;58.90;;;;;;6291200;28;20218;-65
2022/04/17 00:50:59;;;;;;;1.87;1.70;;;4.10;58.70;;;;;;6270996;28;20187;-65
2022/04/17 00:54:06;;;;;;;2.17;1.87;;;4.10;58.30;;;;;;6306387;28;20188;-65
2022/04/17 00:57:07;;;;;;;2.00;1.50;;;4.10;58.10;;;;;;6306462;28;20196;-65
2022/04/17 01:00:08;;;;;;;1.67;1.33;;;4.10;58.20;;;;;;6289916;28;20198;-65
2022/04/17 01:03:10;;;;;;;1.77;1.67;;;4.10;58.20;;;;;;6279814;28;20193;-65
2022/04/17 01:06:11;;;;;;;1.57;1.30;;;4.10;58.10;;;;;;6265897;28;20178;-65
2022/04/17 01:09:12;;;;;;;1.93;1.43;;;4.10;58.00;;;;;;6282468;28;20223;-65
2022/04/17 01:12:13;;;;;;;2.00;1.80;;;4.10;57.80;;;;;;6265774;28;20272;-65
2022/04/17 01:15:15;;;;;;;2.13;1.63;;;4.10;57.80;;;;;;6265436;28;20189;-65
2022/04/17 01:18:15;;;;;;;1.50;1.13;;;4.10;57.80;;;;;;6265322;28;20196;-65
2022/04/17 01:21:19;;;;;;;1.50;1.40;;;4.10;57.80;;;;;;6270014;28;20228;-65
2022/04/17 01:27:40;;;;;;;1.87;1.40;;;4.00;57.70;;;;;;6290852;28;20225;-66
2022/04/17 01:30:41;;;;;;;1.50;1.40;;;3.90;58.20;;;;;;6304086;28;20259;-66
2022/04/17 01:33:42;;;;;;;2.23;1.60;;;3.90;58.10;;;;;;6274144;28;20183;-65
2022/04/17 01:36:47;;;;;;;1.60;1.50;;;3.80;58.20;;;;;;6290394;28;20177;-65
2022/04/17 01:39:48;;;;;;;1.57;1.47;;;3.80;58.10;;;;;;6280007;28;20220;-65
2022/04/17 01:42:48;;;;;;;1.53;1.40;;;3.80;58.40;;;;;;6281813;28;20207;-65
2022/04/17 01:45:49;;;;;;;1.73;1.20;;;3.80;58.80;;;;;;6264790;28;20254;-65
2022/04/17 01:48:50;;;;;;;1.97;1.20;;;3.70;58.80;;;;;;6281756;28;20217;-65
2022/04/17 01:51:52;;;;;;;2.77;1.87;;;3.70;58.90;;;;;;6280443;28;20195;-65
2022/04/17 01:54:53;;;;;;;2.47;1.90;;;3.70;59.10;;;;;;6281734;28;20162;-65
2022/04/17 01:57:54;;;;;;;2.90;1.90;;;3.60;58.80;;;;;;6264683;28;20286;-65
2022/04/17 02:00:54;;;;;;;1.87;1.37;;;3.50;59.50;;;;;;6281135;28;20188;-65
2022/04/17 02:03:55;;;;;;;1.60;1.30;;;3.50;59.70;;;;;;6298055;28;20237;-65
2022/04/17 02:06:56;;;;;;;1.80;1.53;;;3.40;59.90;;;;;;6280979;28;20200;-65
2022/04/17 02:09:57;;;;;;;2.73;2.43;;;3.40;60.10;;;;;;6264535;28;20201;-65
2022/04/17 02:13:00;;;;;;;1.70;1.60;;;3.30;60.30;;;;;;6265067;28;20190;-65
2022/04/17 02:16:01;;;;;;;2.47;1.40;;;3.30;60.50;;;;;;6280984;28;20201;-65
2022/04/17 02:19:02;;;;;;;1.70;1.60;;;3.30;60.80;;;;;;6286853;28;20195;-65
2022/04/17 02:22:03;;;;;;;2.43;2.23;;;3.20;61.00;;;;;;6289413;28;20329;-65
2022/04/17 02:25:04;;;;;;;2.03;1.80;;;3.20;61.60;;;;;;6282614;28;20212;-65
2022/04/17 02:28:05;;;;;;;2.13;1.50;;;3.20;61.70;;;;;;6290434;28;20208;-65
2022/04/17 02:31:07;;;;;;;2.57;2.10;;;3.10;61.90;;;;;;6311012;28;20239;-65
2022/04/17 02:34:09;;;;;;;2.13;2.00;;;3.10;61.70;;;;;;6293703;28;20196;-65
2022/04/17 02:37:09;;;;;;;3.40;2.03;;;3.00;61.70;;;;;;6294142;28;20188;-65
2022/04/17 02:40:10;;;;;;;1.83;1.67;;;3.00;61.70;;;;;;6293714;28;20215;-65
2022/04/17 02:43:11;;;;;;;1.60;1.50;;;2.90;61.80;;;;;;6310032;28;20208;-65
2022/04/17 02:46:12;;;;;;;1.50;1.40;;;2.90;62.00;;;;;;6310507;28;20199;-65
2022/04/17 02:49:13;;;;;;;1.60;1.50;;;2.90;62.30;;;;;;6293717;28;20188;-66
2022/04/17 02:52:14;;;;;;;1.63;1.53;;;2.80;62.40;;;;;;6293856;28;20236;-66
2022/04/17 02:55:15;;;;;;;1.60;1.50;;;2.80;62.30;;;;;;6293595;28;20261;-65
2022/04/17 02:58:16;;;;;;;2.10;1.90;;;2.80;62.60;;;;;;6310420;28;20231;-65
2022/04/17 03:07:55;;;;;;;1.73;1.63;;;2.70;63.60;;;;;;6271018;28;20194;-65
2022/04/17 03:10:56;;;;;;;1.87;1.50;;;2.60;63.50;;;;;;6268316;28;20197;-65
2022/04/17 03:13:57;;;;;;;3.33;2.00;;;2.60;63.50;;;;;;6285662;28;20188;-65
2022/04/17 03:16:57;;;;;;;1.77;1.67;;;2.60;63.70;;;;;;6271788;28;20191;-64
2022/04/17 03:19:58;;;;;;;2.27;1.40;;;2.50;63.60;;;;;;6293328;28;20216;-64
2022/04/17 03:22:59;;;;;;;1.90;1.73;;;2.50;63.80;;;;;;6264432;28;20193;-64
2022/04/17 03:26:00;;;;;;;2.67;1.63;;;2.50;63.70;;;;;;6269601;28;20204;-64
2022/04/17 03:29:00;;;;;;;3.50;1.60;;;2.40;63.50;;;;;;6268535;28;20279;-65
2022/04/17 03:32:02;;;;;;;4.83;2.00;;;2.50;63.50;;;;;;6258356;28;20237;-65
2022/04/17 03:35:02;;;;;;;3.10;1.60;;;2.40;63.70;;;;;;6237675;28;20229;-64
2022/04/17 03:38:03;;;;;;;3.07;1.60;;;2.40;63.70;;;;;;6237321;28;20240;-64
2022/04/17 03:41:04;;;;;;;2.47;1.63;;;2.40;63.80;;;;;;6258855;28;20185;-64
2022/04/17 03:44:05;;;;;;;1.67;1.40;;;2.30;63.80;;;;;;6248150;28;20204;-64
2022/04/17 03:47:06;;;;;;;1.90;1.40;;;2.30;63.90;;;;;;6237632;28;20189;-65
2022/04/17 03:50:07;;;;;;;1.53;1.43;;;2.30;63.80;;;;;;6250553;28;20370;-65
2022/04/17 03:53:08;;;;;;;2.97;1.50;;;2.30;63.80;;;;;;6270589;28;20455;-66
2022/04/17 03:56:09;;;;;;;3.23;1.63;;;2.30;64.00;;;;;;6275768;28;20182;-66
2022/04/17 03:59:10;;;;;;;1.43;1.33;;;2.30;64.00;;;;;;6250847;28;20308;-66
2022/04/17 04:02:10;;;;;;;2.07;1.20;;;2.20;63.90;;;;;;6265682;28;20225;-66
2022/04/17 04:05:11;;;;;;;2.97;1.70;;;2.20;64.00;;;;;;6275409;28;20293;-66
2022/04/17 04:08:12;;;;;;;2.03;1.70;;;2.20;64.20;;;;;;6242367;28;20205;-65
2022/04/17 04:11:13;;;;;;;2.10;1.73;;;2.10;64.20;;;;;;6233729;28;20244;-65
2022/04/17 04:14:14;;;;;;;2.20;1.83;;;2.10;64.30;;;;;;6234007;28;20210;-65
2022/04/17 04:17:14;;;;;;;1.30;1.20;;;2.10;64.40;;;;;;6233260;28;20224;-65
2022/04/17 04:20:15;;;;;;;3.07;1.33;;;2.10;64.50;;;;;;6233084;28;20213;-65
2022/04/17 04:23:19;;;;;;;1.60;1.40;;;2.10;64.50;;;;;;6241492;28;20204;-65
2022/04/17 04:26:20;;;;;;;2.00;1.60;;;2.10;64.50;;;;;;6249913;28;20244;-65
2022/04/17 04:29:20;;;;;;;1.40;1.30;;;2.00;64.50;;;;;;6234047;28;20192;-64
2022/04/17 04:32:21;;;;;;;1.60;1.50;;;2.00;64.40;;;;;;6249295;28;20295;-64
2022/04/17 04:35:23;;;;;;;2.30;1.40;;;2.00;64.50;;;;;;6241305;28;20307;-63
2022/04/17 04:38:25;;;;;;;1.67;1.47;;;2.00;64.70;;;;;;6258433;28;20214;-64
2022/04/17 04:41:26;;;;;;;1.40;1.30;;;2.00;64.50;;;;;;6253672;28;20187;-64
2022/04/17 04:44:26;;;;;;;1.47;1.37;;;2.00;64.60;;;;;;6238152;28;20195;-64
2022/04/17 04:47:27;;;;;;;1.63;1.53;;;2.00;64.70;;;;;;6243886;28;20206;-64
2022/04/17 04:50:28;;;;;;;1.60;1.50;;;2.00;65.00;;;;;;6240904;28;20197;-64
2022/04/17 04:53:29;;;;;;;1.67;1.57;;;2.00;65.20;;;;;;6258100;28;20190;-64
2022/04/17 04:56:29;;;;;;;1.80;1.67;;;2.00;65.30;;;;;;6249316;28;20200;-64
2022/04/17 04:59:30;;;;;;;2.10;1.50;;;2.00;65.30;;;;;;6233122;28;20261;-64
2022/04/17 05:02:31;;;;;;;2.03;1.83;;;2.00;65.00;;;;;;6242727;28;20219;-64
2022/04/17 05:05:33;;;;;;;2.37;1.60;;;2.00;65.10;;;;;;6249614;28;20276;-64
2022/04/17 05:08:34;;;;;;;2.63;1.80;;;2.00;65.20;;;;;;6233436;28;20193;-65
2022/04/17 05:11:37;;;;;;;2.27;1.43;;;2.00;65.30;;;;;;6233181;28;20197;-64
2022/04/17 05:14:41;;;;;;;1.10;1.00;;;2.00;65.40;;;;;;6236843;28;20199;-64
2022/04/17 05:17:42;;;;;;;1.60;1.50;;;2.00;65.50;;;;;;6233802;28;20226;-64
2022/04/17 05:20:43;;;;;;;2.10;1.80;;;2.10;65.50;;;;;;6232797;28;20216;-64
2022/04/17 05:23:43;;;;;;;2.23;1.43;;;2.10;65.40;;;;;;6248896;28;20205;-65
2022/04/17 05:26:45;;;;;;;4.40;2.10;;;2.10;65.50;;;;;;6240975;28;20276;-64
2022/04/17 05:29:45;;;;;;;2.30;1.73;;;2.10;65.70;;;;;;6270496;28;20269;-64
2022/04/17 05:32:46;;;;;;;1.57;1.47;;;2.10;65.90;;;;;;6270274;28;20285;-64
2022/04/17 05:35:48;;;;;;;2.57;1.50;;;2.20;66.00;;;;;;6288368;28;20199;-64
2022/04/17 05:38:49;;;;;;;3.13;2.17;;;2.30;65.80;;;;;;6306158;28;20216;-64
2022/04/17 05:41:50;;;;;;;4.63;1.70;;;2.20;65.60;;;;;;6306663;28;20253;-64
2022/04/17 05:44:52;;;;;;;2.10;1.67;;;2.30;65.80;;;;;;6290053;28;20286;-65
2022/04/17 05:47:53;;;;;;;2.30;2.10;;;2.40;65.90;;;;;;6285915;28;20268;-64
2022/04/17 05:50:54;;;;;;;1.70;1.50;;;2.40;66.10;;;;;;6264729;28;20270;-64
2022/04/17 05:53:54;;;;;;;1.63;1.10;;;2.50;66.00;;;;;;6283291;28;20214;-64
2022/04/17 05:56:55;;;;;;;2.07;1.53;;;2.60;65.80;;;;;;6275294;28;20242;-64
2022/04/17 05:59:56;;;;;;;3.23;1.80;;;2.60;65.50;;;;;;6273384;28;20252;-64
2022/04/17 06:02:57;;;;;;;1.33;1.23;;;2.70;65.10;;;;;;6278176;28;20184;-64
2022/04/17 06:06:36;;;;;;;1.20;1.10;;;2.80;65.10;;;;;;6275206;28;20201;-65
2022/04/17 06:09:37;;;;;;;1.83;1.10;;;2.80;65.10;;;;;;6305440;28;20187;-65
2022/04/17 06:12:38;;;;;;;2.07;1.80;;;2.90;64.60;;;;;;6272670;28;20188;-65
2022/04/17 06:15:40;;;;;;;1.73;1.43;;;3.00;63.50;;;;;;6288849;28;20275;-66
2022/04/17 06:18:41;;;;;;;3.07;1.90;;;3.10;62.50;;;;;;6282092;28;20242;-64
2022/04/17 06:21:42;;;;;;;2.07;1.60;;;3.20;61.80;;;;;;6274887;28;20196;-65
2022/04/17 06:24:43;;;;;;;3.17;2.50;;;3.30;60.90;;;;;;6277921;28;20194;-65
2022/04/17 06:27:47;;;;;;;2.40;2.20;;;3.40;59.70;;;;;;6282335;28;20235;-65
2022/04/17 06:30:48;;;;;;;3.53;2.63;;;3.60;58.90;;;;;;6251373;28;20270;-65
2022/04/17 06:33:49;;;;;;;2.33;1.77;;;3.70;58.80;;;;;;6249793;28;20245;-65
2022/04/17 06:36:50;;;;;;;3.20;2.20;;;3.80;58.50;;;;;;6238402;28;20196;-64
2022/04/17 06:39:51;;;;;;;3.33;2.57;;;3.90;57.60;;;;;;6250533;28;20222;-64
2022/04/17 06:42:53;;;;;;;2.73;1.80;;;4.00;57.00;;;;;;6269222;28;20192;-63
2022/04/17 06:45:54;;;;;;;2.17;1.97;;;4.10;56.60;;;;;;6264351;28;20194;-64
2022/04/17 06:48:55;;;;;;;1.90;1.53;;;4.20;55.60;;;;;;6242579;28;20312;-64
2022/04/17 06:51:55;;;;;;;1.97;1.87;;;4.30;55.60;;;;;;6253249;28;20209;-64
2022/04/17 06:54:56;;;;;;;2.90;1.93;;;4.50;54.00;;;;;;6261578;28;20197;-64
2022/04/17 06:57:57;;;;;;;2.00;1.80;;;4.60;53.70;;;;;;6267835;28;20220;-64
2022/04/17 07:00:58;;;;;;;1.87;1.50;;;4.70;52.40;;;;;;6280664;28;20197;-64
2022/04/17 07:03:58;;;;;;;3.07;2.03;;;4.90;51.30;;;;;;6280820;28;20200;-64
2022/04/17 07:06:59;;;;;;;1.77;1.50;;;5.00;51.60;;;;;;6263842;28;20215;-64
2022/04/17 07:10:01;;;;;;;2.13;1.60;;;5.10;51.50;;;;;;6255881;28;20185;-63
2022/04/17 07:13:02;;;;;;;2.13;1.60;;;5.20;51.20;;;;;;6248175;28;20237;-63
2022/04/17 07:16:02;;;;;;;2.10;1.70;;;5.30;51.30;;;;;;6251632;28;20200;-64
2022/04/17 07:19:03;;;;;;;2.10;1.70;;;5.30;50.20;;;;;;6252407;28;20209;-63
2022/04/17 07:22:04;;;;;;;1.83;1.73;;;5.40;50.20;;;;;;6251856;28;20198;-64
2022/04/17 07:25:06;;;;;;;1.80;1.70;;;5.50;48.60;;;;;;6254091;28;20208;-64
2022/04/17 07:28:14;;;;;;;2.43;1.63;;;5.60;48.00;;;;;;6254958;28;20195;-65
2022/04/17 07:31:15;;;;;;;1.30;1.20;;;5.70;48.00;;;;;;6260180;28;20233;-64
2022/04/17 07:34:19;;;;;;;1.83;1.60;;;5.80;47.60;;;;;;6227011;28;20200;-65
2022/04/17 07:37:27;;;;;;;2.00;1.73;;;5.90;47.50;;;;;;6257174;28;20206;-64
2022/04/17 07:40:33;;;;;;;2.70;1.80;;;5.90;47.40;;;;;;6235097;28;20315;-64
2022/04/17 07:43:34;;;;;;;3.23;1.97;;;6.00;46.50;;;;;;6251362;28;20193;-63
2022/04/17 07:46:35;;;;;;;1.50;1.40;;;6.30;43.90;;;;;;6234401;28;20190;-64
2022/04/17 07:49:35;;;;;;;1.63;1.53;;;6.50;40.40;;;;;;6250827;28;20202;-64
2022/04/17 07:52:37;;;;;;;1.40;1.30;;;6.80;42.10;;;;;;6239409;28;20221;-63
2022/04/17 07:55:37;;;;;;;1.60;1.50;;;6.90;41.10;;;;;;6256154;28;20197;-64
2022/04/17 07:58:39;;;;;;;2.03;1.50;;;7.10;40.40;;;;;;6257027;28;20679;-64
2022/04/17 08:01:43;;;;;;;1.93;1.47;;;7.20;39.10;;;;;;6234369;28;20186;-64
2022/04/17 08:04:44;;;;;;;2.60;1.40;;;7.30;39.60;;;;;;6247929;28;20266;-64
2022/04/17 08:07:45;;;;;;;1.90;1.00;;;7.40;40.10;;;;;;6259008;28;20186;-64
2022/04/17 08:10:46;;;;;;;1.60;1.40;;;7.60;39.90;;;;;;6241223;28;20209;-64
2022/04/17 08:13:47;;;;;;;1.30;1.10;;;7.70;37.40;;;;;;6234301;28;20186;-63
2022/04/17 08:16:48;;;;;;;1.90;1.20;;;7.80;39.20;;;;;;6241714;28;20220;-63
2022/04/17 08:19:48;;;;;;;2.60;1.37;;;7.80;38.20;;;;;;6267356;28;20223;-64
2022/04/17 08:22:49;;;;;;;2.73;1.40;;;7.90;38.50;;;;;;6234264;28;20186;-64
2022/04/17 08:25:50;;;;;;;3.33;1.27;;;8.00;37.30;;;;;;6237532;28;20261;-64
2022/04/17 08:28:51;;;;;;;1.13;1.10;;;8.10;37.10;;;;;;6233516;28;20202;-65
2022/04/17 08:31:51;;;;;;;1.27;1.10;;;8.20;37.60;;;;;;6249359;28;20248;-64
2022/04/17 08:34:52;;;;;;;1.63;1.17;;;8.20;37.60;;;;;;6225627;28;20182;-65
2022/04/17 08:37:55;;;;;;;1.60;1.10;;;8.30;37.10;;;;;;6201574;28;20237;-64
2022/04/17 08:40:57;;;;;;;1.63;1.30;;;8.40;36.20;;;;;;6256107;28;20181;-64
2022/04/17 08:43:59;;;;;;;1.00;0.97;;;8.50;36.00;;;;;;6246393;28;20215;-65
2022/04/17 08:47:00;;;;;;;1.77;1.23;;;8.60;37.70;;;;;;6233310;28;20185;-65
2022/04/17 08:50:02;;;;;;;2.47;1.53;;;8.70;36.50;;;;;;6246983;28;20204;-66
2022/04/17 08:53:04;;;;;;;1.57;1.43;;;8.90;35.80;;;;;;6257872;28;20247;-65
2022/04/17 08:56:05;;;;;;;1.43;1.33;;;9.00;35.00;;;;;;6258324;28;20194;-64
2022/04/17 08:59:06;;;;;;;1.57;1.30;;;9.10;35.50;;;;;;6249363;28;20271;-65
2022/04/17 09:02:10;;;;;;;2.13;1.67;;;9.30;35.10;;;;;;6249876;28;20178;-65
2022/04/17 09:05:13;;;;;;;1.43;1.27;;;9.30;34.80;;;;;;6234372;28;20187;-65
2022/04/17 09:08:19;;;;;;;1.30;1.20;;;9.50;34.90;;;;;;6239183;28;20190;-65
2022/04/17 09:11:25;;;;;;;1.53;1.37;;;9.70;35.10;;;;;;6257173;28;20217;-65
2022/04/17 09:14:26;;;;;;;1.80;1.47;;;9.70;33.30;;;;;;6257790;28;20233;-65
2022/04/17 09:17:33;;;;;;;2.10;1.50;;;9.80;35.80;;;;;;6232992;28;20186;-65
2022/04/17 09:20:34;;;;;;;1.70;1.20;;;9.90;34.50;;;;;;6269641;28;20248;-65
2022/04/17 09:23:40;;;;;;;1.13;1.00;;;10.00;34.10;;;;;;6246991;28;20227;-65
2022/04/17 09:26:51;;;;;;;1.23;1.00;;;10.00;33.40;;;;;;6247979;28;20262;-65
2022/04/17 09:29:52;;;;;;;1.87;1.43;;;10.00;33.60;;;;;;6277403;28;20194;-65
2022/04/17 09:32:53;;;;;;;1.53;1.43;;;10.10;34.20;;;;;;6267681;28;20197;-65
2022/04/17 09:35:55;;;;;;;2.03;1.20;;;10.20;35.20;;;;;;6281463;28;20350;-66
2022/04/17 09:39:14;;;;;;;1.37;1.27;;;10.30;34.10;;;;;;6280651;28;20221;-65
2022/04/17 09:42:22;;;;;;;1.47;1.10;;;10.30;33.90;;;;;;6271859;28;20197;-65
2022/04/17 09:45:24;;;;;;;1.20;1.10;;;10.30;33.70;;;;;;6264958;28;20216;-63
2022/04/17 09:48:28;;;;;;;1.27;1.17;;;10.40;34.00;;;;;;6265369;28;20206;-63
2022/04/17 09:51:31;;;;;;;2.37;0.97;;;10.40;34.20;;;;;;6303319;28;20300;-63
2022/04/17 09:54:32;;;;;;;2.63;1.07;;;10.50;33.70;;;;;;6284823;28;20200;-64
2022/04/17 09:57:39;;;;;;;1.37;1.00;;;10.50;33.20;;;;;;6283453;28;20189;-63
2022/04/17 10:00:41;;;;;;;1.50;1.00;;;10.50;33.20;;;;;;6294067;28;20218;-64
2022/04/17 10:03:43;;;;;;;1.83;1.30;;;10.60;34.40;;;;;;6281141;28;20191;-64
2022/04/17 10:06:45;;;;;;;1.20;1.10;;;10.70;34.80;;;;;;6281377;28;20192;-64
2022/04/17 10:09:46;;;;;;;0.90;0.90;;;10.80;34.30;;;;;;6281294;28;20195;-64
2022/04/17 10:12:47;;;;;;;1.50;1.40;;;10.80;33.20;;;;;;6281507;28;20192;-64
2022/04/17 10:15:50;;;;;;;3.73;1.20;;;10.90;32.40;;;;;;6292474;28;20216;-64
2022/04/17 10:18:51;;;;;;;1.50;1.37;;;11.00;32.70;;;;;;6264739;28;20224;-64
2022/04/17 10:21:53;;;;;;;2.23;1.10;;;11.00;33.20;;;;;;6281535;28;20185;-64
2022/04/17 10:24:54;;;;;;;1.57;1.00;;;11.20;33.50;;;;;;6268202;28;20195;-63
2022/04/17 10:28:00;;;;;;;1.23;1.00;;;11.30;33.00;;;;;;6306028;28;20195;-62
2022/04/17 10:31:13;;;;;;;1.30;1.20;;;11.30;31.30;;;;;;6305615;28;20244;-62
2022/04/17 10:34:15;;;;;;;2.77;1.27;;;11.40;31.50;;;;;;6289418;28;20183;-62
2022/04/17 10:38:08;;;;;;;2.13;1.50;;;11.40;33.10;;;;;;6280811;28;20264;-64
2022/04/17 10:41:12;;;;;;;2.10;1.00;;;11.70;31.90;;;;;;6230457;28;20209;-63
2022/04/17 10:44:15;;;;;;;1.33;1.03;;;11.70;32.50;;;;;;6281238;28;20178;-62
2022/04/17 10:47:21;;;;;;;3.90;1.30;;;11.80;32.20;;;;;;6280656;28;20190;-63
2022/04/17 10:50:22;;;;;;;1.30;1.20;;;11.80;30.00;;;;;;6284175;28;20177;-63
2022/04/17 10:53:30;;;;;;;1.43;1.13;;;11.90;33.30;;;;;;6293769;28;20195;-63
2022/04/17 10:56:39;;;;;;;2.03;1.17;;;12.00;32.60;;;;;;6281157;28;20251;-63
2022/04/17 10:59:45;;;;;;;1.00;0.90;;;12.20;33.30;;;;;;6302452;28;20209;-63
2022/04/17 11:02:46;;;;;;;1.33;1.20;;;12.30;32.30;;;;;;6286043;28;20174;-63
2022/04/17 11:09:22;;;;;;;2.27;1.40;;;12.50;32.60;;;;;;6272484;28;20259;-63
2022/04/17 11:12:27;;;;;;;3.37;1.83;;;12.70;32.70;;;;;;6251734;28;20240;-63
2022/04/17 11:15:29;;;;;;;1.70;1.30;;;12.80;32.20;;;;;;6284250;28;20222;-63
2022/04/17 11:18:31;;;;;;;0.97;0.90;;;12.90;32.80;;;;;;6283434;28;20304;-63
2022/04/17 11:21:45;;;;;;;1.37;1.03;;;13.00;30.50;;;;;;6276493;28;20188;-63
2022/04/17 11:24:55;;;;;;;2.73;1.27;;;13.10;31.70;;;;;;6308118;28;20185;-64
2022/04/17 11:27:58;;;;;;;1.27;1.10;;;13.10;29.50;;;;;;6308708;28;20185;-63
2022/04/17 11:30:58;;;;;;;1.00;0.97;;;13.20;29.60;;;;;;6295243;28;20243;-63
2022/04/17 11:34:00;;;;;;;1.53;1.10;;;13.30;30.50;;;;;;6266548;28;20197;-63
2022/04/17 11:37:02;;;;;;;1.17;1.00;;;13.60;31.70;;;;;;6266234;28;20198;-63
2022/04/17 11:40:14;;;;;;;1.50;1.23;;;13.90;31.20;;;;;;6265796;28;20212;-63
2022/04/17 11:43:17;;;;;;;1.73;1.23;;;14.00;28.30;;;;;;6281198;28;20193;-63
2022/04/17 11:46:18;;;;;;;1.23;1.13;;;14.30;30.20;;;;;;6265208;28;20250;-63
2022/04/17 11:49:19;;;;;;;0.80;0.80;;;14.70;29.30;;;;;;6265687;28;20190;-64
2022/04/17 11:52:21;;;;;;;1.90;1.30;;;15.30;29.30;;;;;;6265648;28;20185;-64
2022/04/17 11:55:28;;;;;;;2.33;1.57;;;15.90;27.40;;;;;;6302094;28;20213;-63
2022/04/17 11:58:29;;;;;;;1.93;1.07;;;16.60;26.40;;;;;;6290450;28;20216;-64
2022/04/17 12:01:30;;;;;;;1.77;1.10;;;17.20;25.80;;;;;;6305194;28;20189;-63
2022/04/17 12:04:32;;;;;;;1.40;1.20;;;18.00;26.00;;;;;;6281357;28;20268;-63
2022/04/17 12:07:34;;;;;;;1.20;1.10;;;19.00;23.90;;;;;;6282268;28;20276;-63
2022/04/17 12:10:38;;;;;;;1.20;1.10;;;19.80;22.70;;;;;;6282345;28;20256;-64
2022/04/17 12:13:39;;;;;;;2.17;1.23;;;20.30;21.50;;;;;;6278062;28;20192;-63
2022/04/17 12:16:50;;;;;;;3.17;1.47;;;21.00;20.50;;;;;;6290303;28;20215;-63
2022/04/17 12:19:51;;;;;;;1.93;1.33;;;22.10;21.70;;;;;;6288653;28;20363;-62
2022/04/17 12:22:53;;;;;;;1.23;1.03;;;23.20;18.80;;;;;;6289658;28;20189;-63
2022/04/17 12:25:54;;;;;;;1.20;1.00;;;24.00;18.50;;;;;;6306484;28;20176;-63
2022/04/17 12:28:55;;;;;;;0.90;0.90;;;24.50;19.00;;;;;;6280242;28;20204;-63
2022/04/17 12:31:55;;;;;;;1.27;1.13;;;25.10;19.80;;;;;;6299814;28;20231;-63
2022/04/17 12:34:57;;;;;;;1.67;1.10;;;25.80;17.20;;;;;;6267258;28;20193;-63
2022/04/17 12:38:06;;;;;;;2.37;0.90;;;25.70;17.70;;;;;;6264403;28;20192;-63
2022/04/17 12:41:25;;;;;;;1.77;0.80;;;25.80;17.70;;;;;;6281137;28;20185;-63
2022/04/17 12:44:35;;;;;;;1.07;0.97;;;26.70;17.80;;;;;;6267176;28;20199;-63
2022/04/17 12:47:38;;;;;;;1.13;1.00;;;27.60;16.40;;;;;;6288661;28;20287;-64
2022/04/17 12:50:39;;;;;;;1.80;1.10;;;28.20;15.60;;;;;;6279949;28;20207;-63
2022/04/17 12:53:43;;;;;;;1.30;1.20;;;28.20;15.70;;;;;;6263729;28;20188;-62
2022/04/17 12:56:43;;;;;;;1.27;1.17;;;27.90;16.30;;;;;;6280569;28;20196;-63
2022/04/17 12:59:50;;;;;;;1.20;1.10;;;27.60;15.50;;;;;;6284612;28;20192;-63
2022/04/17 13:03:08;;;;;;;0.83;0.80;;;27.40;16.00;;;;;;6285259;28;20613;-63
2022/04/17 13:06:22;;;;;;;3.23;1.30;;;27.70;16.70;;;;;;6285581;28;20287;-63
2022/04/17 13:09:27;;;;;;;1.57;1.10;;;28.40;15.80;;;;;;6305694;28;20295;-63
2022/04/17 13:12:47;;;;;;;2.37;1.33;;;28.00;14.70;;;;;;6288072;28;20230;-63
2022/04/17 13:15:49;;;;;;;1.30;1.00;;;26.70;15.70;;;;;;6286838;28;20189;-62
2022/04/17 13:18:53;;;;;;;1.20;1.10;;;26.20;16.10;;;;;;6288901;28;20189;-63
2022/04/17 13:21:56;;;;;;;2.03;1.30;;;25.70;17.30;;;;;;6283902;28;20279;-63
2022/04/17 13:24:57;;;;;;;1.20;1.10;;;26.60;16.60;;;;;;6303809;28;20280;-63
2022/04/17 13:27:58;;;;;;;1.53;1.07;;;26.20;15.70;;;;;;6288185;28;20208;-63
2022/04/17 13:30:58;;;;;;;1.10;1.00;;;25.40;16.90;;;;;;6311481;28;20231;-61
2022/04/17 13:33:59;;;;;;;1.07;0.97;;;26.30;17.60;;;;;;6266770;28;20194;-63
2022/04/17 13:40:19;;;;;;;1.10;0.93;;;27.10;15.80;;;;;;6270680;28;20202;-62
2022/04/17 13:43:21;;;;;;;1.70;1.20;;;27.80;15.00;;;;;;6279622;28;20283;-63
2022/04/17 13:46:25;;;;;;;2.20;1.20;;;27.90;15.10;;;;;;6278167;28;20236;-62
2022/04/17 13:49:28;;;;;;;2.03;1.40;;;27.00;15.50;;;;;;6295891;28;20217;-62
2022/04/17 13:52:29;;;;;;;2.50;1.37;;;26.40;15.90;;;;;;6279054;28;20346;-62
2022/04/17 13:55:30;;;;;;;1.87;1.47;;;25.60;16.50;;;;;;6279024;28;20193;-63
2022/04/17 13:58:31;;;;;;;1.83;1.20;;;24.40;18.20;;;;;;6282182;28;20234;-63
2022/04/17 14:01:32;;;;;;;1.40;1.30;;;24.30;18.40;;;;;;6287370;28;20267;-63
2022/04/17 14:04:33;;;;;;;2.50;1.00;;;25.10;18.50;;;;;;6268343;28;20269;-62
2022/04/17 14:07:35;;;;;;;1.07;0.97;;;26.00;18.00;;;;;;6278120;28;20191;-63
2022/04/17 14:10:36;;;;;;;1.47;1.10;;;26.60;16.70;;;;;;6261705;28;20213;-62
2022/04/17 14:13:37;;;;;;;1.30;1.13;;;27.00;17.00;;;;;;6260483;28;20181;-62
2022/04/17 14:16:38;;;;;;;3.53;1.43;;;27.60;16.10;;;;;;6261232;28;20212;-62
2022/04/17 14:19:39;;;;;;;1.60;1.20;;;27.80;15.00;;;;;;6261838;28;20209;-62
2022/04/17 14:22:40;;;;;;;1.53;1.10;;;27.60;15.80;;;;;;6268045;28;20239;-62
2022/04/17 14:25:40;;;;;;;1.00;0.90;;;27.20;15.10;;;;;;6271126;28;20207;-62
2022/04/17 14:28:41;;;;;;;1.50;0.93;;;27.00;16.40;;;;;;6290110;28;20219;-63
2022/04/17 14:31:42;;;;;;;1.10;1.00;;;26.70;17.00;;;;;;6302287;28;20280;-62
2022/04/17 14:34:46;;;;;;;1.40;1.00;;;27.10;16.90;;;;;;6334480;28;20175;-61
2022/04/17 14:37:47;;;;;;;2.20;1.10;;;27.30;15.80;;;;;;6319363;28;20203;-62
2022/04/17 14:40:47;;;;;;;1.40;1.23;;;26.70;16.50;;;;;;6302406;28;20326;-62
2022/04/17 14:43:48;;;;;;;1.20;0.70;;;26.60;16.60;;;;;;6285391;28;20188;-68
2022/04/17 14:46:49;;;;;;;1.90;0.83;;;27.60;16.20;;;;;;6303536;28;20196;-69
2022/04/17 14:49:50;;;;;;;1.30;0.70;;;30.70;13.80;;;;;;6252057;28;20212;-66
2022/04/17 14:52:52;;;;;;;1.10;1.00;;;33.00;12.50;;;;;;6268906;28;20196;-63
2022/04/17 14:55:53;;;;;;;1.10;0.70;;;34.40;12.10;;;;;;6286055;28;20238;-69
2022/04/17 14:58:54;;;;;;;1.13;1.03;;;34.80;11.50;;;;;;6310596;28;20198;-68
2022/04/17 15:01:56;;;;;;;1.13;0.90;;;34.50;11.10;;;;;;6285003;28;20299;-68
2022/04/17 15:04:57;;;;;;;0.97;0.77;;;34.30;11.30;;;;;;6285131;28;20189;-68
2022/04/17 15:07:57;;;;;;;1.97;1.10;;;34.20;11.10;;;;;;6297196;28;20287;-68
2022/04/17 15:10:58;;;;;;;2.23;0.73;;;34.10;11.70;;;;;;6282836;28;20189;-66
2022/04/17 15:13:59;;;;;;;0.97;0.80;;;33.80;10.90;;;;;;6290260;28;20197;-65
2022/04/17 15:17:00;;;;;;;2.37;0.80;;;33.20;11.90;;;;;;6279981;28;20189;-66
2022/04/17 15:20:00;;;;;;;1.33;1.00;;;32.90;11.60;;;;;;6291041;28;20226;-68
2022/04/17 15:23:01;;;;;;;1.80;1.00;;;32.90;12.40;;;;;;6288549;28;20196;-68
2022/04/17 15:26:02;;;;;;;0.80;0.70;;;33.20;12.20;;;;;;6270393;28;20224;-70
2022/04/17 15:29:04;;;;;;;2.97;1.00;;;32.20;12.80;;;;;;6268016;28;20220;-69
2022/04/17 15:32:05;;;;;;;0.87;0.83;;;30.20;13.40;;;;;;6283736;28;20232;-70
2022/04/17 15:35:06;;;;;;;1.00;0.90;;;29.90;14.30;;;;;;6274544;28;20255;-69
2022/04/17 15:38:07;;;;;;;1.20;0.73;;;30.10;13.70;;;;;;6275158;28;20236;-70
2022/04/17 15:41:08;;;;;;;1.63;0.90;;;30.00;13.50;;;;;;6292537;28;20192;-70
2022/04/17 15:50:53;;;;;;;2.87;0.93;;;27.70;14.90;;;;;;6299667;28;20223;-71
2022/04/17 15:53:53;;;;;;;0.80;0.77;;;26.80;15.50;;;;;;6253080;28;20220;-71
2022/04/17 15:56:54;;;;;;;1.87;0.90;;;26.20;16.00;;;;;;6287086;28;20185;-71
2022/04/17 15:59:55;;;;;;;1.53;0.90;;;25.80;17.10;;;;;;6279452;28;20193;-71
2022/04/17 16:02:56;;;;;;;1.27;0.90;;;25.40;17.30;;;;;;6293287;28;20251;-71
2022/04/17 16:05:57;;;;;;;1.70;0.90;;;25.00;16.30;;;;;;6289621;28;20195;-70
2022/04/17 16:08:57;;;;;;;1.33;1.10;;;24.30;16.80;;;;;;6292109;28;20203;-71
2022/04/17 16:11:58;;;;;;;1.20;0.83;;;23.50;17.80;;;;;;6262688;28;20189;-70
2022/04/17 16:14:59;;;;;;;1.37;0.90;;;22.80;18.90;;;;;;6284057;28;20197;-68
2022/04/17 16:18:00;;;;;;;2.10;0.80;;;22.50;18.90;;;;;;6275590;28;20210;-70
2022/04/17 16:21:01;;;;;;;0.70;0.70;;;22.20;20.50;;;;;;6275799;28;20201;-69